Carrier Mills, Illinois
Current Conditions -  °F | °C
As of 3:35 PM on Thursday 18 Dec 2014 (Local Time) from KHSB Reporting Station
Overcast Overcast  
Wind Chill: 34°   Ceiling: 3400
Heat Index: 34°   Visibility: 7mi
Dew Point: 28°   Wind: 3mph
Humidity: 81%   Direction: 60°ENE
Pressure: 30.25"   Gusts: NA
Location:  37.68°N, 88.63°W
Report Text: KHSB 182135Z AUTO 06003KT 7SM BKN034 OVC060 01/M02 A3025 RMK AO2 T00101020
Loading
Personal Weather Stations






























Interactive Weather Map New forecast layout! Learn more

10-Day Weather Forecast

Advertisements
Track Severe Weather on mobile